createdAt,value
2022-11-27T00:00:00.521Z,101862.44
2022-11-27T00:02:27.502Z,101866.19
2022-11-27T00:04:54.531Z,101855.72
2022-11-27T00:07:21.545Z,101860.75
2022-11-27T00:09:48.503Z,101864.78
2022-11-27T00:12:15.377Z,101862.63
2022-11-27T00:14:42.279Z,101869.44
2022-11-27T00:17:09.183Z,101861.63
2022-11-27T00:19:36.146Z,101863.66
2022-11-27T00:22:02.997Z,101860.59
2022-11-27T00:24:30.003Z,101857.38
2022-11-27T00:26:56.971Z,101868.59
2022-11-27T00:29:23.888Z,101866.94
2022-11-27T00:31:50.764Z,101867.97
2022-11-27T00:34:17.619Z,101871.50
2022-11-27T00:36:48.022Z,101870.84
2022-11-27T00:39:15.387Z,101873.38
2022-11-27T00:41:42.311Z,101871.00
2022-11-27T00:44:09.286Z,101871.13
2022-11-27T00:46:36.517Z,101875.22
2022-11-27T00:49:05.911Z,101876.19
2022-11-27T00:51:32.889Z,101871.44
2022-11-27T00:53:59.913Z,101875.91
2022-11-27T00:56:30.634Z,101879.78
2022-11-27T00:58:57.801Z,101875.22
2022-11-27T01:01:30.454Z,101875.00
2022-11-27T01:03:58.825Z,101872.78
2022-11-27T01:06:27.416Z,101873.19
2022-11-27T01:08:54.884Z,101879.50
2022-11-27T01:11:27.476Z,101869.13
2022-11-27T01:13:57.376Z,101873.84
2022-11-27T01:16:25.992Z,101872.63
2022-11-27T01:18:55.764Z,101872.63
2022-11-27T01:21:22.651Z,101877.59
2022-11-27T01:23:50.257Z,101877.59
2022-11-27T01:26:18.085Z,101880.25
2022-11-27T01:28:46.014Z,101870.78
2022-11-27T01:31:21.795Z,101869.25
2022-11-27T01:33:53.536Z,101868.63
2022-11-27T01:36:20.855Z,101871.31
2022-11-27T01:38:47.933Z,101869.22
2022-11-27T01:41:22.414Z,101871.09
2022-11-27T01:43:58.775Z,101869.16
2022-11-27T01:46:53.578Z,101869.47
2022-11-27T01:49:47.501Z,101866.63
2022-11-27T01:52:26.137Z,101855.78
2022-11-27T01:55:01.833Z,101864.16
2022-11-27T01:57:36.377Z,101869.06
2022-11-27T02:00:06.981Z,101863.28
2022-11-27T02:02:40.029Z,101861.91
2022-11-27T02:05:07.333Z,101862.59
2022-11-27T02:07:34.760Z,101868.84
2022-11-27T02:10:02.226Z,101871.91
2022-11-27T02:12:44.918Z,101876.31
2022-11-27T02:15:26.697Z,101879.38
2022-11-27T02:18:27.638Z,101878.06
2022-11-27T02:21:09.114Z,101881.03
2022-11-27T02:23:42.197Z,101889.53
2022-11-27T02:26:18.727Z,101889.63
2022-11-27T02:28:54.773Z,101893.22
2022-11-27T02:31:47.914Z,101885.91
2022-11-27T02:34:24.143Z,101885.38
2022-11-27T02:37:03.613Z,101878.22
2022-11-27T02:39:37.694Z,101883.38
2022-11-27T02:42:11.504Z,101877.28
2022-11-27T02:44:44.548Z,101867.47
2022-11-27T02:47:13.653Z,101877.28
2022-11-27T02:49:43.255Z,101876.50
2022-11-27T02:52:14.046Z,101863.91
2022-11-27T02:54:43.648Z,101871.63
2022-11-27T02:57:13.127Z,101872.84
2022-11-27T02:59:43.038Z,101876.53
2022-11-27T03:02:14.939Z,101873.28
2022-11-27T03:04:55.625Z,101872.75
2022-11-27T03:07:36.145Z,101871.63
2022-11-27T03:10:10.272Z,101870.94
2022-11-27T03:12:37.468Z,101875.00
2022-11-27T03:15:06.590Z,101871.84
2022-11-27T03:18:08.759Z,101878.28
2022-11-27T03:20:41.402Z,101877.41
2022-11-27T03:23:08.298Z,101873.84
2022-11-27T03:25:35.306Z,101877.69
2022-11-27T03:28:06.198Z,101876.25
2022-11-27T03:30:33.150Z,101868.88
2022-11-27T03:33:01.409Z,101859.94
2022-11-27T03:35:31.418Z,101857.25
2022-11-27T03:37:58.544Z,101862.66
2022-11-27T03:40:34.302Z,101858.88
2022-11-27T03:43:11.646Z,101864.44
2022-11-27T03:45:49.335Z,101863.09
2022-11-27T03:48:34.178Z,101859.94
2022-11-27T03:51:05.806Z,101861.25
2022-11-27T03:53:45.083Z,101852.56
2022-11-27T03:56:42.373Z,101861.44
2022-11-27T03:59:16.036Z,101859.66
2022-11-27T04:01:43.055Z,101864.31
2022-11-27T04:04:10.066Z,101856.19
2022-11-27T04:06:36.972Z,101859.13
2022-11-27T04:09:04.414Z,101860.50
2022-11-27T04:11:31.310Z,101862.53
2022-11-27T04:13:58.993Z,101866.75
2022-11-27T04:16:25.931Z,101871.84
2022-11-27T04:18:52.891Z,101871.22
2022-11-27T04:21:19.766Z,101872.34
2022-11-27T04:23:46.744Z,101869.28
2022-11-27T04:26:13.702Z,101869.16
2022-11-27T04:28:40.635Z,101861.44
2022-11-27T04:31:07.598Z,101863.19
2022-11-27T04:33:34.582Z,101869.81
2022-11-27T04:36:01.442Z,101870.22
2022-11-27T04:38:28.334Z,101867.91
2022-11-27T04:40:55.238Z,101870.31
2022-11-27T04:43:22.137Z,101869.00
2022-11-27T04:45:48.986Z,101871.19
2022-11-27T04:48:15.913Z,101866.41
2022-11-27T04:50:42.815Z,101872.50
2022-11-27T04:53:09.700Z,101869.50
2022-11-27T04:55:36.675Z,101881.81
2022-11-27T04:58:03.916Z,101880.28
2022-11-27T05:00:30.893Z,101879.94
2022-11-27T05:02:57.837Z,101884.09
2022-11-27T05:05:24.762Z,101888.38
2022-11-27T05:07:51.682Z,101880.50
2022-11-27T05:10:18.665Z,101887.75
2022-11-27T05:12:45.737Z,101887.66
2022-11-27T05:15:12.626Z,101876.56
2022-11-27T05:17:39.715Z,101877.34
2022-11-27T05:20:07.847Z,101873.91
2022-11-27T05:22:34.747Z,101886.34
2022-11-27T05:25:01.710Z,101878.06
2022-11-27T05:27:28.552Z,101885.31
2022-11-27T05:29:55.450Z,101888.09
2022-11-27T05:32:22.317Z,101899.63
2022-11-27T05:34:49.798Z,101900.50
2022-11-27T05:37:19.738Z,101886.38
2022-11-27T05:39:47.163Z,101898.59
2022-11-27T05:42:14.410Z,101900.09
2022-11-27T05:44:41.365Z,101890.31
2022-11-27T05:47:08.489Z,101905.31
2022-11-27T05:49:35.443Z,101901.34
2022-11-27T05:52:02.336Z,101902.22
2022-11-27T05:54:29.225Z,101901.28
2022-11-27T05:56:56.076Z,101892.66
2022-11-27T05:59:22.982Z,101898.47
2022-11-27T06:01:49.917Z,101896.22
2022-11-27T06:04:16.888Z,101894.88
2022-11-27T06:06:43.816Z,101896.78
2022-11-27T06:09:13.203Z,101899.56
2022-11-27T06:11:41.946Z,101904.78
2022-11-27T06:14:10.356Z,101892.66
2022-11-27T06:16:37.960Z,101898.78
2022-11-27T06:19:05.003Z,101887.66
2022-11-27T06:21:31.961Z,101891.50
2022-11-27T06:23:59.492Z,101899.97
2022-11-27T06:26:29.660Z,101898.78
2022-11-27T06:28:58.209Z,101899.75
2022-11-27T06:31:28.122Z,101901.91
2022-11-27T06:33:55.937Z,101903.59
2022-11-27T06:36:25.514Z,101901.16
2022-11-27T06:38:52.374Z,101893.72
2022-11-27T06:41:21.804Z,101888.44
2022-11-27T06:43:48.954Z,101901.50
2022-11-27T06:46:19.286Z,101900.00
2022-11-27T06:48:47.517Z,101891.56
2022-11-27T06:51:18.904Z,101900.94
2022-11-27T06:53:45.929Z,101900.97
2022-11-27T06:56:15.590Z,101906.00
2022-11-27T06:58:43.107Z,101919.31
2022-11-27T07:01:13.574Z,101916.59
2022-11-27T07:03:41.095Z,101915.06
2022-11-27T07:06:10.446Z,101917.09
2022-11-27T07:08:37.415Z,101911.66
2022-11-27T07:11:06.562Z,101905.28
2022-11-27T07:13:33.894Z,101913.66
2022-11-27T07:16:09.629Z,101905.06
2022-11-27T07:18:42.242Z,101911.31
2022-11-27T07:21:09.681Z,101915.75
2022-11-27T07:23:37.788Z,101914.50
2022-11-27T07:26:09.614Z,101905.75
2022-11-27T07:28:36.659Z,101909.59
2022-11-27T07:31:03.978Z,101907.06
2022-11-27T07:33:30.913Z,101910.81
2022-11-27T07:36:03.403Z,101916.88
2022-11-27T07:38:30.315Z,101905.56
2022-11-27T07:41:01.384Z,101905.53
2022-11-27T07:43:29.057Z,101896.38
2022-11-27T07:45:56.346Z,101896.78
2022-11-27T07:48:23.539Z,101897.75
2022-11-27T07:50:50.416Z,101892.44
2022-11-27T07:53:17.502Z,101904.72
2022-11-27T07:55:44.436Z,101906.81
2022-11-27T07:58:11.479Z,101915.41
2022-11-27T08:00:38.494Z,101920.22
2022-11-27T08:03:05.584Z,101922.41
2022-11-27T08:05:36.706Z,101917.06
2022-11-27T08:08:04.965Z,101925.50
2022-11-27T08:10:35.884Z,101918.00
2022-11-27T08:13:02.889Z,101932.13
2022-11-27T08:15:29.923Z,101916.41
2022-11-27T08:17:57.657Z,101926.50
2022-11-27T08:20:24.797Z,101916.59
2022-11-27T08:22:51.697Z,101915.03
2022-11-27T08:25:18.806Z,101909.47
2022-11-27T08:27:48.248Z,101911.38
2022-11-27T08:30:15.904Z,101907.66
2022-11-27T08:32:43.803Z,101925.88
2022-11-27T08:35:11.786Z,101920.69
2022-11-27T08:37:38.827Z,101919.81
2022-11-27T08:40:06.534Z,101908.56
2022-11-27T08:42:33.431Z,101910.16
2022-11-27T08:45:00.449Z,101910.16
2022-11-27T08:47:27.311Z,101909.06
2022-11-27T08:49:54.276Z,101899.09
2022-11-27T08:52:21.924Z,101888.84
2022-11-27T08:54:52.018Z,101885.84
2022-11-27T08:57:23.064Z,101877.13
2022-11-27T08:59:50.000Z,101871.28
2022-11-27T09:02:16.884Z,101877.66
2022-11-27T09:04:44.006Z,101871.00
2022-11-27T09:07:14.440Z,101867.63
2022-11-27T09:09:41.485Z,101872.53
2022-11-27T09:12:08.715Z,101869.75
2022-11-27T09:14:35.681Z,101864.34
2022-11-27T09:17:02.702Z,101867.56
2022-11-27T09:19:29.651Z,101862.69
2022-11-27T09:21:56.534Z,101858.28
2022-11-27T09:24:23.661Z,101861.84
2022-11-27T09:26:50.548Z,101856.72
2022-11-27T09:29:17.445Z,101854.94
2022-11-27T09:31:44.364Z,101845.25
2022-11-27T09:34:11.340Z,101843.63
2022-11-27T09:36:38.253Z,101847.03
2022-11-27T09:39:05.200Z,101849.69
2022-11-27T09:41:39.767Z,101852.84
2022-11-27T09:44:33.723Z,101841.84
2022-11-27T09:47:10.210Z,101830.59
2022-11-27T09:49:45.899Z,101827.09
2022-11-27T09:52:21.157Z,101817.06
2022-11-27T09:54:57.839Z,101818.56
2022-11-27T09:57:33.146Z,101833.38
2022-11-27T10:00:07.136Z,101819.94
2022-11-27T10:02:35.566Z,101819.66
2022-11-27T10:05:15.467Z,101805.72
2022-11-27T10:07:51.976Z,101806.50
2022-11-27T10:10:41.465Z,101822.34
2022-11-27T10:13:22.132Z,101812.50
2022-11-27T10:16:01.792Z,101811.28
2022-11-27T10:18:33.758Z,101809.56
2022-11-27T10:21:13.397Z,101810.69
2022-11-27T10:24:12.933Z,101799.75
2022-11-27T10:26:48.603Z,101797.94
2022-11-27T10:29:36.378Z,101792.66
2022-11-27T10:35:19.734Z,101778.66
2022-11-27T10:37:51.787Z,101782.16
2022-11-27T10:40:36.537Z,101776.88
2022-11-27T10:43:24.082Z,101785.44
2022-11-27T10:45:56.708Z,101788.91
2022-11-27T10:48:24.058Z,101790.22
2022-11-27T10:50:51.880Z,101791.16
2022-11-27T10:53:18.761Z,101784.97
2022-11-27T10:55:55.255Z,101786.44
2022-11-27T10:58:37.367Z,101784.69
2022-11-27T11:01:10.729Z,101782.94
2022-11-27T11:03:37.931Z,101783.09
2022-11-27T11:06:24.546Z,101791.06
2022-11-27T11:09:13.218Z,101787.69
2022-11-27T11:11:40.828Z,101775.22
2022-11-27T11:14:23.008Z,101774.47
2022-11-27T11:16:51.477Z,101774.44
2022-11-27T11:19:34.456Z,101772.66
2022-11-27T11:22:14.597Z,101770.00
2022-11-27T11:24:52.620Z,101765.56
2022-11-27T11:27:25.316Z,101755.59
2022-11-27T11:29:55.549Z,101759.47
2022-11-27T11:32:36.379Z,101773.38
2022-11-27T11:35:34.849Z,101757.66
2022-11-27T11:38:05.569Z,101765.59
2022-11-27T11:40:37.653Z,101760.13
2022-11-27T11:43:10.141Z,101750.47
2022-11-27T11:45:46.289Z,101761.22
2022-11-27T11:48:28.944Z,101767.38
2022-11-27T11:51:17.733Z,101758.53
2022-11-27T11:54:01.258Z,101751.44
2022-11-27T11:56:38.098Z,101749.72
2022-11-27T11:59:47.354Z,101741.84
2022-11-27T12:02:39.448Z,101742.66
2022-11-27T12:05:25.857Z,101739.16
2022-11-27T12:07:59.895Z,101748.84
2022-11-27T12:10:28.080Z,101744.50
2022-11-27T12:13:22.238Z,101743.41
2022-11-27T12:16:07.793Z,101736.28
2022-11-27T12:18:37.755Z,101749.19
2022-11-27T12:21:16.696Z,101733.72
2022-11-27T12:24:12.922Z,101726.75
2022-11-27T12:27:13.127Z,101735.59
2022-11-27T12:30:04.022Z,101740.00
2022-11-27T12:32:46.981Z,101740.03
2022-11-27T12:35:33.429Z,101739.13
2022-11-27T12:38:44.427Z,101733.88
2022-11-27T12:41:14.271Z,101731.22
2022-11-27T12:43:48.095Z,101732.06
2022-11-27T12:46:35.361Z,101726.75
2022-11-27T12:49:10.519Z,101731.56
2022-11-27T12:51:41.362Z,101730.03
2022-11-27T12:54:29.975Z,101727.16
2022-11-27T12:57:03.422Z,101729.88
2022-11-27T12:59:58.649Z,101734.84
2022-11-27T13:02:47.231Z,101736.56
2022-11-27T13:05:16.319Z,101731.03
2022-11-27T13:07:52.014Z,101725.50
2022-11-27T13:10:47.516Z,101734.75
2022-11-27T13:13:17.102Z,101726.78
2022-11-27T13:15:58.901Z,101731.34
2022-11-27T13:18:31.680Z,101733.88
2022-11-27T13:21:01.341Z,101725.56
2022-11-27T13:23:35.141Z,101734.50
2022-11-27T13:26:12.090Z,101725.63
2022-11-27T13:28:45.641Z,101729.94
2022-11-27T13:31:26.295Z,101733.13
2022-11-27T13:34:09.572Z,101727.03
2022-11-27T13:36:42.843Z,101735.69
2022-11-27T13:39:24.063Z,101735.47
2022-11-27T13:42:02.771Z,101732.41
2022-11-27T13:44:30.880Z,101737.06
2022-11-27T13:47:05.130Z,101737.72
2022-11-27T13:49:34.255Z,101729.91
2022-11-27T13:52:10.813Z,101732.28
2022-11-27T13:54:38.747Z,101728.53
2022-11-27T13:57:17.804Z,101722.50
2022-11-27T14:00:06.838Z,101733.38
2022-11-27T14:02:51.015Z,101741.22
2022-11-27T14:05:21.210Z,101739.50
2022-11-27T14:07:51.579Z,101740.22
2022-11-27T14:10:24.504Z,101745.47
2022-11-27T14:12:54.454Z,101746.25
2022-11-27T14:15:24.591Z,101742.69
2022-11-27T14:18:04.431Z,101742.00
2022-11-27T14:20:35.522Z,101740.13
2022-11-27T14:23:17.758Z,101743.66
2022-11-27T14:25:44.724Z,101736.59
2022-11-27T14:28:21.991Z,101739.16
2022-11-27T14:31:00.367Z,101729.84
2022-11-27T14:33:31.194Z,101741.22
2022-11-27T14:36:03.972Z,101739.69
2022-11-27T14:38:33.317Z,101737.47
2022-11-27T14:41:11.749Z,101742.91
2022-11-27T14:43:38.709Z,101737.56
2022-11-27T14:46:08.315Z,101732.13
2022-11-27T14:48:49.927Z,101738.59
2022-11-27T14:51:19.392Z,101733.56
2022-11-27T14:53:47.974Z,101735.91
2022-11-27T14:56:16.184Z,101734.06
2022-11-27T14:58:52.588Z,101735.66
2022-11-27T15:01:28.061Z,101739.13
2022-11-27T15:04:06.149Z,101733.16
2022-11-27T15:06:46.337Z,101732.94
2022-11-27T15:09:34.994Z,101740.75
2022-11-27T15:12:18.250Z,101744.44
2022-11-27T15:14:54.530Z,101739.13
2022-11-27T15:17:27.624Z,101731.31
2022-11-27T15:19:56.784Z,101733.25
2022-11-27T15:22:24.550Z,101733.09
2022-11-27T15:25:03.810Z,101733.03
2022-11-27T15:27:45.820Z,101741.00
2022-11-27T15:30:16.941Z,101736.78
2022-11-27T15:32:51.971Z,101739.41
2022-11-27T15:35:23.577Z,101746.25
2022-11-27T15:37:51.734Z,101747.94
2022-11-27T15:40:37.474Z,101742.28
2022-11-27T15:43:15.558Z,101748.75
2022-11-27T15:45:44.527Z,101738.78
2022-11-27T15:48:16.899Z,101743.34
2022-11-27T15:50:50.074Z,101747.97
2022-11-27T15:53:18.830Z,101746.19
2022-11-27T15:55:45.842Z,101740.03
2022-11-27T15:58:12.867Z,101745.31
2022-11-27T16:00:40.724Z,101740.75
2022-11-27T16:03:07.896Z,101741.31
2022-11-27T16:05:34.766Z,101737.84
2022-11-27T16:08:01.722Z,101739.47
2022-11-27T16:10:28.666Z,101740.72
2022-11-27T16:12:57.639Z,101742.66
2022-11-27T16:15:30.037Z,101732.22
2022-11-27T16:17:59.741Z,101735.34
2022-11-27T16:20:27.070Z,101725.72
2022-11-27T16:22:54.241Z,101732.84
2022-11-27T16:25:21.157Z,101738.69
2022-11-27T16:27:48.089Z,101742.09
2022-11-27T16:30:15.217Z,101735.06
2022-11-27T16:32:42.325Z,101735.88
2022-11-27T16:35:09.757Z,101742.56
2022-11-27T16:37:36.825Z,101742.41
2022-11-27T16:40:04.091Z,101748.16
2022-11-27T16:42:31.602Z,101749.56
2022-11-27T16:44:58.703Z,101756.00
2022-11-27T16:47:32.149Z,101754.38
2022-11-27T16:50:01.138Z,101752.31
2022-11-27T16:52:28.740Z,101754.81
2022-11-27T16:54:56.296Z,101756.47
2022-11-27T16:57:23.659Z,101756.84
2022-11-27T16:59:50.967Z,101755.38
2022-11-27T17:02:19.476Z,101758.78
2022-11-27T17:04:46.361Z,101753.75
2022-11-27T17:07:13.320Z,101758.78
2022-11-27T17:09:42.248Z,101757.66
2022-11-27T17:12:09.199Z,101750.44
2022-11-27T17:14:37.136Z,101749.09
2022-11-27T17:17:05.811Z,101748.91
2022-11-27T17:19:32.638Z,101750.88
2022-11-27T17:22:00.367Z,101751.09
2022-11-27T17:24:29.003Z,101747.88
2022-11-27T17:26:56.256Z,101749.53
2022-11-27T17:29:33.543Z,101750.22
2022-11-27T17:32:02.830Z,101750.44
2022-11-27T17:34:30.190Z,101745.72
2022-11-27T17:36:58.766Z,101746.91
2022-11-27T17:39:26.662Z,101736.63
2022-11-27T17:41:53.574Z,101738.91
2022-11-27T17:44:20.776Z,101739.13
2022-11-27T17:46:50.191Z,101733.25
2022-11-27T17:49:19.635Z,101734.09
2022-11-27T17:51:48.898Z,101734.34
2022-11-27T17:54:16.204Z,101736.91
2022-11-27T17:56:43.427Z,101727.47
2022-11-27T17:59:10.838Z,101734.16
2022-11-27T18:01:38.998Z,101733.09
2022-11-27T18:04:06.126Z,101727.84
2022-11-27T18:06:33.664Z,101728.38
2022-11-27T18:09:01.233Z,101730.47
2022-11-27T18:11:31.059Z,101728.84
2022-11-27T18:14:00.449Z,101727.41
2022-11-27T18:16:32.008Z,101735.19
2022-11-27T18:19:00.084Z,101732.84
2022-11-27T18:21:28.807Z,101739.19
2022-11-27T18:29:30.365Z,101739.75
2022-11-27T18:31:57.349Z,101741.84
2022-11-27T18:34:24.342Z,101743.00
2022-11-27T18:36:51.348Z,101739.09
2022-11-27T18:39:18.666Z,101738.78
2022-11-27T18:41:45.576Z,101737.28
2022-11-27T18:44:12.569Z,101736.72
2022-11-27T18:46:39.602Z,101744.41
2022-11-27T18:49:06.768Z,101739.66
2022-11-27T18:51:33.682Z,101741.25
2022-11-27T18:54:01.086Z,101740.16
2022-11-27T18:56:32.134Z,101739.28
2022-11-27T18:59:07.079Z,101741.09
2022-11-27T19:01:41.456Z,101734.00
2022-11-27T19:04:09.543Z,101750.81
2022-11-27T19:06:37.853Z,101742.50
2022-11-27T19:09:06.291Z,101750.22
2022-11-27T19:11:34.167Z,101751.50
2022-11-27T19:14:01.888Z,101756.09
2022-11-27T19:16:35.528Z,101752.28
2022-11-27T19:19:05.024Z,101750.78
2022-11-27T19:21:34.548Z,101760.41
2022-11-27T19:24:03.732Z,101764.34
2022-11-27T19:26:33.915Z,101775.88
2022-11-27T19:29:04.190Z,101773.91
2022-11-27T19:31:33.209Z,101765.16
2022-11-27T19:34:02.463Z,101756.72
2022-11-27T19:36:31.545Z,101749.44
2022-11-27T19:39:06.509Z,101758.81
2022-11-27T19:41:34.129Z,101755.97
2022-11-27T19:44:05.646Z,101761.09
2022-11-27T19:46:37.907Z,101751.13
2022-11-27T19:49:08.220Z,101758.13
2022-11-27T19:51:37.553Z,101755.91
2022-11-27T19:54:10.067Z,101756.91
2022-11-27T19:56:40.190Z,101748.88
2022-11-27T19:59:08.039Z,101749.25
2022-11-27T20:01:35.477Z,101752.25
2022-11-27T20:04:04.128Z,101757.47
2022-11-27T20:06:31.809Z,101751.69
2022-11-27T20:09:02.045Z,101751.03
2022-11-27T20:11:34.642Z,101749.22
2022-11-27T20:14:05.890Z,101739.59
2022-11-27T20:16:34.781Z,101743.28
2022-11-27T20:19:05.717Z,101736.19
2022-11-27T20:21:34.725Z,101744.00
2022-11-27T20:24:03.225Z,101735.78
2022-11-27T20:26:30.810Z,101730.59
2022-11-27T20:28:59.086Z,101726.84
2022-11-27T20:31:37.730Z,101736.91
2022-11-27T20:34:09.065Z,101731.44
2022-11-27T20:36:39.326Z,101727.06
2022-11-27T20:39:06.676Z,101726.50
2022-11-27T20:41:33.640Z,101731.25
2022-11-27T20:44:02.511Z,101740.34
2022-11-27T20:46:32.061Z,101743.81
2022-11-27T20:48:59.652Z,101739.94
2022-11-27T20:51:33.444Z,101745.41
2022-11-27T20:54:07.165Z,101740.84
2022-11-27T20:56:34.353Z,101738.47
2022-11-27T20:59:01.574Z,101733.19
2022-11-27T21:01:34.820Z,101725.00
2022-11-27T21:04:09.342Z,101726.91
2022-11-27T21:06:43.420Z,101735.25
2022-11-27T21:09:13.959Z,101737.81
2022-11-27T21:11:41.406Z,101736.78
2022-11-27T21:14:11.169Z,101735.50
2022-11-27T21:16:42.118Z,101741.28
2022-11-27T21:19:15.685Z,101736.38
2022-11-27T21:21:42.773Z,101738.19
2022-11-27T21:24:10.074Z,101735.22
2022-11-27T21:26:37.200Z,101746.59
2022-11-27T21:29:04.494Z,101740.97
2022-11-27T21:31:37.251Z,101726.81
2022-11-27T21:34:07.066Z,101737.16
2022-11-27T21:36:37.092Z,101740.38
2022-11-27T21:39:08.210Z,101742.00
2022-11-27T21:41:36.367Z,101742.56
2022-11-27T21:44:05.422Z,101743.91
2022-11-27T21:46:33.852Z,101742.97
2022-11-27T21:49:04.597Z,101744.75
2022-11-27T21:51:31.748Z,101737.84
2022-11-27T21:53:59.632Z,101736.84
2022-11-27T21:56:28.871Z,101739.84
2022-11-27T21:58:56.197Z,101739.13
2022-11-27T22:01:24.866Z,101740.50
2022-11-27T22:03:56.613Z,101739.25
2022-11-27T22:06:27.039Z,101739.97
2022-11-27T22:08:56.847Z,101732.69
2022-11-27T22:11:30.425Z,101733.56
2022-11-27T22:14:00.670Z,101724.44
2022-11-27T22:16:33.505Z,101728.41
2022-11-27T22:19:01.352Z,101722.53
2022-11-27T22:21:30.198Z,101716.72
2022-11-27T22:23:58.548Z,101724.31
2022-11-27T22:26:25.863Z,101717.00
2022-11-27T22:28:53.555Z,101721.81
2022-11-27T22:31:24.108Z,101714.41
2022-11-27T22:33:51.541Z,101713.41
2022-11-27T22:36:20.701Z,101706.97
2022-11-27T22:38:49.407Z,101712.78
2022-11-27T22:41:16.975Z,101709.56
2022-11-27T22:43:45.046Z,101697.31
2022-11-27T22:46:35.597Z,101697.59
2022-11-27T22:49:06.815Z,101690.34
2022-11-27T22:51:35.796Z,101687.97
2022-11-27T22:54:04.464Z,101684.84
2022-11-27T22:56:36.220Z,101685.44
2022-11-27T22:59:31.005Z,101683.97
2022-11-27T23:01:52.897Z,101675.63
2022-11-27T23:04:19.855Z,101684.00
2022-11-27T23:06:48.555Z,101678.81
2022-11-27T23:09:18.093Z,101675.97
2022-11-27T23:11:45.497Z,101682.03
2022-11-27T23:14:12.775Z,101679.03
2022-11-27T23:16:40.165Z,101679.69
2022-11-27T23:19:07.344Z,101684.22
2022-11-27T23:21:37.632Z,101677.06
2022-11-27T23:24:06.267Z,101682.03
2022-11-27T23:26:33.137Z,101686.72
2022-11-27T23:29:00.050Z,101687.66
2022-11-27T23:31:31.224Z,101672.81
2022-11-27T23:34:01.320Z,101687.31
2022-11-27T23:36:29.380Z,101680.97
2022-11-27T23:38:56.831Z,101680.28
2022-11-27T23:41:25.145Z,101677.41
2022-11-27T23:43:53.679Z,101669.41
2022-11-27T23:46:22.801Z,101670.66
2022-11-27T23:48:49.936Z,101659.94
2022-11-27T23:51:18.658Z,101654.59
2022-11-27T23:53:45.958Z,101655.47
2022-11-27T23:56:16.370Z,101662.97
2022-11-27T23:58:47.248Z,101652.16
